Terminal Aerodrome Forecast
Issued by NWS

Home | Current Version | Previous Version | Text Only | Print | Product List | Glossary On
Versions: 1 2 3 4 5 6 7 8 9 10 11 12 13 14 15 16
264
FTUS43 KAPX 172322
TAFTVC
TAF
KTVC 172322Z 1800/1824 23019KT P6SM SCT200 WS020/26045KT
     FM181000 25012G21KT P6SM BKN040
     FM181200 25009KT P6SM VCSH BKN025
     FM181800 23010KT P6SM OVC035=

USA.gov is the U.S. government's official web portal to all federal, state and local government web resources and services.